sensor_id;sensor_type;location;lat;lon;timestamp;temperature;humidity
16114;DHT22;8161;-33.910;151.156;2022-11-20T00:01:20;26.90;88.90
16114;DHT22;8161;-33.910;151.156;2022-11-20T00:03:48;26.70;90.00
16114;DHT22;8161;-33.910;151.156;2022-11-20T00:06:17;26.80;89.30
16114;DHT22;8161;-33.910;151.156;2022-11-20T00:08:45;26.70;87.20
16114;DHT22;8161;-33.910;151.156;2022-11-20T00:11:18;26.90;88.70
16114;DHT22;8161;-33.910;151.156;2022-11-20T00:13:47;26.80;88.30
16114;DHT22;8161;-33.910;151.156;2022-11-20T00:16:16;26.60;85.80
16114;DHT22;8161;-33.910;151.156;2022-11-20T00:18:44;26.60;87.00
16114;DHT22;8161;-33.910;151.156;2022-11-20T00:21:17;26.70;86.50
16114;DHT22;8161;-33.910;151.156;2022-11-20T00:23:45;27.00;90.30
16114;DHT22;8161;-33.910;151.156;2022-11-20T00:26:15;26.80;86.20
16114;DHT22;8161;-33.910;151.156;2022-11-20T00:28:43;26.30;90.40
16114;DHT22;8161;-33.910;151.156;2022-11-20T00:31:14;26.60;88.50
16114;DHT22;8161;-33.910;151.156;2022-11-20T00:33:43;26.70;89.70
16114;DHT22;8161;-33.910;151.156;2022-11-20T00:36:13;26.80;88.20
16114;DHT22;8161;-33.910;151.156;2022-11-20T00:38:41;26.90;89.00
16114;DHT22;8161;-33.910;151.156;2022-11-20T00:41:11;27.10;89.80
16114;DHT22;8161;-33.910;151.156;2022-11-20T00:43:39;27.20;87.00
16114;DHT22;8161;-33.910;151.156;2022-11-20T00:46:13;27.00;85.20
16114;DHT22;8161;-33.910;151.156;2022-11-20T00:48:41;26.50;88.30
16114;DHT22;8161;-33.910;151.156;2022-11-20T00:51:08;26.80;85.10
16114;DHT22;8161;-33.910;151.156;2022-11-20T00:53:36;26.90;84.20
16114;DHT22;8161;-33.910;151.156;2022-11-20T00:56:06;27.00;84.70
16114;DHT22;8161;-33.910;151.156;2022-11-20T00:58:36;26.90;83.20
16114;DHT22;8161;-33.910;151.156;2022-11-20T01:03:41;26.80;84.00
16114;DHT22;8161;-33.910;151.156;2022-11-20T01:06:20;26.90;85.70
16114;DHT22;8161;-33.910;151.156;2022-11-20T01:08:49;27.40;87.60
16114;DHT22;8161;-33.910;151.156;2022-11-20T01:11:22;27.20;83.90
16114;DHT22;8161;-33.910;151.156;2022-11-20T01:13:51;27.20;84.70
16114;DHT22;8161;-33.910;151.156;2022-11-20T01:16:24;27.20;83.80
16114;DHT22;8161;-33.910;151.156;2022-11-20T01:18:54;27.10;82.90
16114;DHT22;8161;-33.910;151.156;2022-11-20T01:21:30;27.10;85.40
16114;DHT22;8161;-33.910;151.156;2022-11-20T01:23:58;27.10;83.00
16114;DHT22;8161;-33.910;151.156;2022-11-20T01:26:29;27.10;82.20
16114;DHT22;8161;-33.910;151.156;2022-11-20T01:28:59;27.00;81.10
16114;DHT22;8161;-33.910;151.156;2022-11-20T01:31:29;27.00;80.90
16114;DHT22;8161;-33.910;151.156;2022-11-20T01:34:00;26.90;81.30
16114;DHT22;8161;-33.910;151.156;2022-11-20T01:36:29;26.90;82.00
16114;DHT22;8161;-33.910;151.156;2022-11-20T01:38:59;27.10;82.20
16114;DHT22;8161;-33.910;151.156;2022-11-20T01:41:31;27.00;81.60
16114;DHT22;8161;-33.910;151.156;2022-11-20T01:44:14;27.00;82.40
16114;DHT22;8161;-33.910;151.156;2022-11-20T01:47:12;27.10;82.10
16114;DHT22;8161;-33.910;151.156;2022-11-20T01:49:50;27.20;81.00
16114;DHT22;8161;-33.910;151.156;2022-11-20T01:55:23;27.40;81.50
16114;DHT22;8161;-33.910;151.156;2022-11-20T01:57:51;27.40;81.90
16114;DHT22;8161;-33.910;151.156;2022-11-20T02:00:19;27.50;82.70
16114;DHT22;8161;-33.910;151.156;2022-11-20T02:03:08;27.70;83.90
16114;DHT22;8161;-33.910;151.156;2022-11-20T02:08:07;27.80;84.30
16114;DHT22;8161;-33.910;151.156;2022-11-20T02:10:34;27.80;84.20
16114;DHT22;8161;-33.910;151.156;2022-11-20T02:13:02;27.90;83.90
16114;DHT22;8161;-33.910;151.156;2022-11-20T02:15:43;27.80;81.60
16114;DHT22;8161;-33.910;151.156;2022-11-20T02:18:11;27.80;81.40
16114;DHT22;8161;-33.910;151.156;2022-11-20T02:20:44;27.80;81.30
16114;DHT22;8161;-33.910;151.156;2022-11-20T02:23:12;26.90;81.30
16114;DHT22;8161;-33.910;151.156;2022-11-20T02:25:43;27.80;82.10
16114;DHT22;8161;-33.910;151.156;2022-11-20T02:28:10;27.80;81.40
16114;DHT22;8161;-33.910;151.156;2022-11-20T02:30:38;27.80;80.30
16114;DHT22;8161;-33.910;151.156;2022-11-20T02:33:05;27.80;80.50
16114;DHT22;8161;-33.910;151.156;2022-11-20T02:38:01;27.90;82.70
16114;DHT22;8161;-33.910;151.156;2022-11-20T02:40:31;27.90;81.20
16114;DHT22;8161;-33.910;151.156;2022-11-20T02:42:58;28.00;81.30
16114;DHT22;8161;-33.910;151.156;2022-11-20T02:45:25;27.80;82.10
16114;DHT22;8161;-33.910;151.156;2022-11-20T02:47:53;27.90;81.50
16114;DHT22;8161;-33.910;151.156;2022-11-20T02:50:20;28.00;82.10
16114;DHT22;8161;-33.910;151.156;2022-11-20T02:52:48;28.10;80.20
16114;DHT22;8161;-33.910;151.156;2022-11-20T02:55:15;28.10;81.60
16114;DHT22;8161;-33.910;151.156;2022-11-20T02:57:42;28.00;82.40
16114;DHT22;8161;-33.910;151.156;2022-11-20T03:00:10;28.10;82.80
16114;DHT22;8161;-33.910;151.156;2022-11-20T03:02:40;28.10;84.20
16114;DHT22;8161;-33.910;151.156;2022-11-20T03:05:08;28.30;82.70
16114;DHT22;8161;-33.910;151.156;2022-11-20T03:07:35;28.50;83.30
16114;DHT22;8161;-33.910;151.156;2022-11-20T03:10:03;28.40;82.30
16114;DHT22;8161;-33.910;151.156;2022-11-20T03:12:30;28.40;82.20
16114;DHT22;8161;-33.910;151.156;2022-11-20T03:14:57;28.30;82.70
16114;DHT22;8161;-33.910;151.156;2022-11-20T03:17:25;28.60;83.20
16114;DHT22;8161;-33.910;151.156;2022-11-20T03:19:53;28.50;82.10
16114;DHT22;8161;-33.910;151.156;2022-11-20T03:22:20;28.50;83.30
16114;DHT22;8161;-33.910;151.156;2022-11-20T03:24:51;28.40;84.30
16114;DHT22;8161;-33.910;151.156;2022-11-20T03:27:18;28.20;80.90
16114;DHT22;8161;-33.910;151.156;2022-11-20T03:29:45;28.10;80.90
16114;DHT22;8161;-33.910;151.156;2022-11-20T03:32:13;27.90;80.30
16114;DHT22;8161;-33.910;151.156;2022-11-20T03:34:40;27.70;79.70
16114;DHT22;8161;-33.910;151.156;2022-11-20T03:37:07;27.60;82.50
16114;DHT22;8161;-33.910;151.156;2022-11-20T03:39:34;27.50;85.00
16114;DHT22;8161;-33.910;151.156;2022-11-20T03:42:01;27.60;85.70
16114;DHT22;8161;-33.910;151.156;2022-11-20T03:44:29;27.40;82.40
16114;DHT22;8161;-33.910;151.156;2022-11-20T03:46:56;27.30;81.50
16114;DHT22;8161;-33.910;151.156;2022-11-20T03:49:23;27.40;80.60
16114;DHT22;8161;-33.910;151.156;2022-11-20T03:51:50;27.50;80.30
16114;DHT22;8161;-33.910;151.156;2022-11-20T03:54:20;27.60;79.00
16114;DHT22;8161;-33.910;151.156;2022-11-20T03:56:47;27.80;77.20
16114;DHT22;8161;-33.910;151.156;2022-11-20T03:59:15;28.00;77.40
16114;DHT22;8161;-33.910;151.156;2022-11-20T04:01:42;28.20;77.80
16114;DHT22;8161;-33.910;151.156;2022-11-20T04:04:09;28.30;75.70
16114;DHT22;8161;-33.910;151.156;2022-11-20T04:06:38;28.00;76.30
16114;DHT22;8161;-33.910;151.156;2022-11-20T04:09:05;28.00;76.00
16114;DHT22;8161;-33.910;151.156;2022-11-20T04:11:35;28.10;75.20
16114;DHT22;8161;-33.910;151.156;2022-11-20T04:14:04;28.40;74.20
16114;DHT22;8161;-33.910;151.156;2022-11-20T04:16:34;28.50;71.60
16114;DHT22;8161;-33.910;151.156;2022-11-20T04:19:04;28.80;73.80
16114;DHT22;8161;-33.910;151.156;2022-11-20T04:21:33;28.80;73.20
16114;DHT22;8161;-33.910;151.156;2022-11-20T04:24:01;29.00;73.70
16114;DHT22;8161;-33.910;151.156;2022-11-20T04:26:29;29.00;73.70
16114;DHT22;8161;-33.910;151.156;2022-11-20T04:28:57;29.00;74.80
16114;DHT22;8161;-33.910;151.156;2022-11-20T04:31:27;29.30;77.40
16114;DHT22;8161;-33.910;151.156;2022-11-20T04:33:55;29.10;77.10
16114;DHT22;8161;-33.910;151.156;2022-11-20T04:36:28;29.30;78.50
16114;DHT22;8161;-33.910;151.156;2022-11-20T04:38:57;29.30;75.10
16114;DHT22;8161;-33.910;151.156;2022-11-20T04:41:27;29.10;74.90
16114;DHT22;8161;-33.910;151.156;2022-11-20T04:43:57;28.90;75.70
16114;DHT22;8161;-33.910;151.156;2022-11-20T04:46:31;29.20;76.10
16114;DHT22;8161;-33.910;151.156;2022-11-20T04:48:59;29.20;75.30
16114;DHT22;8161;-33.910;151.156;2022-11-20T04:51:27;28.90;75.00
16114;DHT22;8161;-33.910;151.156;2022-11-20T04:53:54;28.90;76.60
16114;DHT22;8161;-33.910;151.156;2022-11-20T04:56:22;28.90;73.70
16114;DHT22;8161;-33.910;151.156;2022-11-20T04:58:49;28.70;64.80
16114;DHT22;8161;-33.910;151.156;2022-11-20T05:01:19;28.50;65.60
16114;DHT22;8161;-33.910;151.156;2022-11-20T05:03:47;28.50;68.10
16114;DHT22;8161;-33.910;151.156;2022-11-20T05:06:17;28.50;68.70
16114;DHT22;8161;-33.910;151.156;2022-11-20T05:08:45;28.60;68.10
16114;DHT22;8161;-33.910;151.156;2022-11-20T05:11:18;28.50;67.70
16114;DHT22;8161;-33.910;151.156;2022-11-20T05:13:47;28.50;66.80
16114;DHT22;8161;-33.910;151.156;2022-11-20T05:16:20;28.30;66.80
16114;DHT22;8161;-33.910;151.156;2022-11-20T05:18:48;28.30;67.80
16114;DHT22;8161;-33.910;151.156;2022-11-20T05:21:16;28.30;68.30
16114;DHT22;8161;-33.910;151.156;2022-11-20T05:23:44;28.40;66.40
16114;DHT22;8161;-33.910;151.156;2022-11-20T05:26:20;28.70;65.90
16114;DHT22;8161;-33.910;151.156;2022-11-20T05:28:48;28.90;64.60
16114;DHT22;8161;-33.910;151.156;2022-11-20T05:31:23;29.10;65.00
16114;DHT22;8161;-33.910;151.156;2022-11-20T05:33:51;28.90;66.90
16114;DHT22;8161;-33.910;151.156;2022-11-20T05:36:18;29.20;65.80
16114;DHT22;8161;-33.910;151.156;2022-11-20T05:38:45;29.20;64.20
16114;DHT22;8161;-33.910;151.156;2022-11-20T05:41:18;29.20;63.40
16114;DHT22;8161;-33.910;151.156;2022-11-20T05:43:47;29.20;64.90
16114;DHT22;8161;-33.910;151.156;2022-11-20T05:46:17;29.20;64.30
16114;DHT22;8161;-33.910;151.156;2022-11-20T05:48:45;29.10;65.40
16114;DHT22;8161;-33.910;151.156;2022-11-20T05:51:15;29.00;64.00
16114;DHT22;8161;-33.910;151.156;2022-11-20T05:53:43;28.90;64.90
16114;DHT22;8161;-33.910;151.156;2022-11-20T05:56:15;28.90;65.10
16114;DHT22;8161;-33.910;151.156;2022-11-20T05:58:43;28.90;64.30
16114;DHT22;8161;-33.910;151.156;2022-11-20T06:01:22;28.80;61.80
16114;DHT22;8161;-33.910;151.156;2022-11-20T06:03:50;28.70;59.90
16114;DHT22;8161;-33.910;151.156;2022-11-20T06:06:18;28.80;60.90
16114;DHT22;8161;-33.910;151.156;2022-11-20T06:08:46;28.90;60.50
16114;DHT22;8161;-33.910;151.156;2022-11-20T06:11:15;29.00;59.50
16114;DHT22;8161;-33.910;151.156;2022-11-20T06:13:42;29.00;60.50
16114;DHT22;8161;-33.910;151.156;2022-11-20T06:16:11;29.00;60.40
16114;DHT22;8161;-33.910;151.156;2022-11-20T06:18:39;29.20;59.00
16114;DHT22;8161;-33.910;151.156;2022-11-20T06:21:10;29.60;58.60
16114;DHT22;8161;-33.910;151.156;2022-11-20T06:23:38;29.60;57.10
16114;DHT22;8161;-33.910;151.156;2022-11-20T06:26:11;29.50;57.30
16114;DHT22;8161;-33.910;151.156;2022-11-20T06:28:39;29.50;56.90
16114;DHT22;8161;-33.910;151.156;2022-11-20T06:31:07;29.70;58.10
16114;DHT22;8161;-33.910;151.156;2022-11-20T06:33:36;30.00;57.50
16114;DHT22;8161;-33.910;151.156;2022-11-20T06:36:04;29.80;57.10
16114;DHT22;8161;-33.910;151.156;2022-11-20T06:38:32;29.80;57.30
16114;DHT22;8161;-33.910;151.156;2022-11-20T06:40:59;30.00;58.10
16114;DHT22;8161;-33.910;151.156;2022-11-20T06:43:28;29.90;57.50
16114;DHT22;8161;-33.910;151.156;2022-11-20T06:45:57;29.60;58.10
16114;DHT22;8161;-33.910;151.156;2022-11-20T06:48:27;29.10;57.90
16114;DHT22;8161;-33.910;151.156;2022-11-20T06:50:55;29.10;57.60
16114;DHT22;8161;-33.910;151.156;2022-11-20T06:53:23;28.70;56.50
16114;DHT22;8161;-33.910;151.156;2022-11-20T06:55:51;28.50;57.00
16114;DHT22;8161;-33.910;151.156;2022-11-20T06:58:18;28.60;56.90
16114;DHT22;8161;-33.910;151.156;2022-11-20T07:00:46;28.50;57.10
16114;DHT22;8161;-33.910;151.156;2022-11-20T07:03:13;28.40;57.70
16114;DHT22;8161;-33.910;151.156;2022-11-20T07:05:40;28.20;57.70
16114;DHT22;8161;-33.910;151.156;2022-11-20T07:08:08;28.00;58.30
16114;DHT22;8161;-33.910;151.156;2022-11-20T07:10:36;27.70;58.80
16114;DHT22;8161;-33.910;151.156;2022-11-20T07:13:03;27.30;57.90
16114;DHT22;8161;-33.910;151.156;2022-11-20T07:15:31;27.20;56.50
16114;DHT22;8161;-33.910;151.156;2022-11-20T07:18:01;27.00;56.40
16114;DHT22;8161;-33.910;151.156;2022-11-20T07:20:28;26.80;56.40
16114;DHT22;8161;-33.910;151.156;2022-11-20T07:22:56;26.70;56.70
16114;DHT22;8161;-33.910;151.156;2022-11-20T07:25:24;26.60;56.80
16114;DHT22;8161;-33.910;151.156;2022-11-20T07:27:56;26.50;57.10
16114;DHT22;8161;-33.910;151.156;2022-11-20T07:30:23;26.50;57.70
16114;DHT22;8161;-33.910;151.156;2022-11-20T07:32:52;26.50;57.50
16114;DHT22;8161;-33.910;151.156;2022-11-20T07:35:20;26.40;57.70
16114;DHT22;8161;-33.910;151.156;2022-11-20T07:37:47;26.30;58.30
16114;DHT22;8161;-33.910;151.156;2022-11-20T07:40:16;26.20;57.50
16114;DHT22;8161;-33.910;151.156;2022-11-20T07:42:53;26.10;57.30
16114;DHT22;8161;-33.910;151.156;2022-11-20T07:45:22;25.90;57.80
16114;DHT22;8161;-33.910;151.156;2022-11-20T07:47:50;25.80;58.80
16114;DHT22;8161;-33.910;151.156;2022-11-20T07:50:18;25.90;63.40
16114;DHT22;8161;-33.910;151.156;2022-11-20T07:52:46;26.00;63.90
16114;DHT22;8161;-33.910;151.156;2022-11-20T07:55:14;25.60;61.20
16114;DHT22;8161;-33.910;151.156;2022-11-20T07:57:41;25.60;62.00
16114;DHT22;8161;-33.910;151.156;2022-11-20T08:00:10;25.60;61.90
16114;DHT22;8161;-33.910;151.156;2022-11-20T08:02:41;25.60;62.10
16114;DHT22;8161;-33.910;151.156;2022-11-20T08:05:09;25.50;62.50
16114;DHT22;8161;-33.910;151.156;2022-11-20T08:07:41;25.30;63.00
16114;DHT22;8161;-33.910;151.156;2022-11-20T08:10:11;25.00;67.70
16114;DHT22;8161;-33.910;151.156;2022-11-20T08:12:58;25.20;64.20
16114;DHT22;8161;-33.910;151.156;2022-11-20T08:15:40;24.80;72.20
16114;DHT22;8161;-33.910;151.156;2022-11-20T08:18:10;24.90;71.20
16114;DHT22;8161;-33.910;151.156;2022-11-20T08:20:38;24.40;71.50
16114;DHT22;8161;-33.910;151.156;2022-11-20T08:23:07;25.00;72.40
16114;DHT22;8161;-33.910;151.156;2022-11-20T08:25:36;24.30;72.50
16114;DHT22;8161;-33.910;151.156;2022-11-20T08:28:06;24.80;67.20
16114;DHT22;8161;-33.910;151.156;2022-11-20T08:30:34;24.50;73.70
16114;DHT22;8161;-33.910;151.156;2022-11-20T08:33:04;24.60;68.30
16114;DHT22;8161;-33.910;151.156;2022-11-20T08:35:37;24.00;73.30
16114;DHT22;8161;-33.910;151.156;2022-11-20T08:38:05;24.50;68.70
16114;DHT22;8161;-33.910;151.156;2022-11-20T08:40:33;24.40;68.80
16114;DHT22;8161;-33.910;151.156;2022-11-20T08:43:00;24.30;68.80
16114;DHT22;8161;-33.910;151.156;2022-11-20T08:45:28;24.30;69.60
16114;DHT22;8161;-33.910;151.156;2022-11-20T08:48:00;24.30;69.90
16114;DHT22;8161;-33.910;151.156;2022-11-20T08:50:31;24.20;69.60
16114;DHT22;8161;-33.910;151.156;2022-11-20T08:53:07;24.10;69.70
16114;DHT22;8161;-33.910;151.156;2022-11-20T08:55:34;24.10;69.70
16114;DHT22;8161;-33.910;151.156;2022-11-20T08:58:06;24.10;70.00
16114;DHT22;8161;-33.910;151.156;2022-11-20T09:00:34;24.10;70.60
16114;DHT22;8161;-33.910;151.156;2022-11-20T09:03:02;24.10;70.10
16114;DHT22;8161;-33.910;151.156;2022-11-20T09:05:29;24.10;71.20
16114;DHT22;8161;-33.910;151.156;2022-11-20T09:07:57;24.10;70.30
16114;DHT22;8161;-33.910;151.156;2022-11-20T09:10:26;24.00;69.80
16114;DHT22;8161;-33.910;151.156;2022-11-20T09:12:53;23.90;69.70
16114;DHT22;8161;-33.910;151.156;2022-11-20T09:15:25;23.90;69.40
16114;DHT22;8161;-33.910;151.156;2022-11-20T09:18:02;23.80;69.40
16114;DHT22;8161;-33.910;151.156;2022-11-20T09:20:31;23.80;69.80
16114;DHT22;8161;-33.910;151.156;2022-11-20T09:22:58;24.00;74.00
16114;DHT22;8161;-33.910;151.156;2022-11-20T09:25:26;24.10;74.90
16114;DHT22;8161;-33.910;151.156;2022-11-20T09:27:57;23.70;69.80
16114;DHT22;8161;-33.910;151.156;2022-11-20T09:30:25;23.60;72.50
16114;DHT22;8161;-33.910;151.156;2022-11-20T09:32:53;23.60;70.30
16114;DHT22;8161;-33.910;151.156;2022-11-20T09:35:20;23.60;70.00
16114;DHT22;8161;-33.910;151.156;2022-11-20T09:37:48;23.60;70.00
16114;DHT22;8161;-33.910;151.156;2022-11-20T09:40:26;23.50;70.20
16114;DHT22;8161;-33.910;151.156;2022-11-20T09:48:43;23.40;69.80
16114;DHT22;8161;-33.910;151.156;2022-11-20T09:54:30;23.20;70.70
16114;DHT22;8161;-33.910;151.156;2022-11-20T09:57:10;22.80;75.20
16114;DHT22;8161;-33.910;151.156;2022-11-20T09:59:51;23.10;70.70
16114;DHT22;8161;-33.910;151.156;2022-11-20T10:08:19;23.00;70.60
16114;DHT22;8161;-33.910;151.156;2022-11-20T10:11:19;23.00;71.10
16114;DHT22;8161;-33.910;151.156;2022-11-20T10:25:15;22.80;71.20
16114;DHT22;8161;-33.910;151.156;2022-11-20T10:30:23;22.80;72.90
16114;DHT22;8161;-33.910;151.156;2022-11-20T10:32:54;22.70;71.60
16114;DHT22;8161;-33.910;151.156;2022-11-20T10:38:54;22.60;72.10
16114;DHT22;8161;-33.910;151.156;2022-11-20T10:41:23;22.40;75.30
16114;DHT22;8161;-33.910;151.156;2022-11-20T10:46:47;22.50;73.40
16114;DHT22;8161;-33.910;151.156;2022-11-20T10:49:18;22.50;73.40
16114;DHT22;8161;-33.910;151.156;2022-11-20T10:51:59;22.40;74.00
16114;DHT22;8161;-33.910;151.156;2022-11-20T10:54:40;22.40;74.50
16114;DHT22;8161;-33.910;151.156;2022-11-20T11:00:10;22.40;74.80
16114;DHT22;8161;-33.910;151.156;2022-11-20T11:02:55;22.60;78.00
16114;DHT22;8161;-33.910;151.156;2022-11-20T11:05:47;22.30;75.50
16114;DHT22;8161;-33.910;151.156;2022-11-20T11:08:17;22.30;77.90
16114;DHT22;8161;-33.910;151.156;2022-11-20T11:13:23;22.30;77.50
16114;DHT22;8161;-33.910;151.156;2022-11-20T11:15:52;22.30;78.20
16114;DHT22;8161;-33.910;151.156;2022-11-20T11:18:31;22.30;77.60
16114;DHT22;8161;-33.910;151.156;2022-11-20T11:21:00;22.30;77.50
16114;DHT22;8161;-33.910;151.156;2022-11-20T11:29:01;22.20;78.70
16114;DHT22;8161;-33.910;151.156;2022-11-20T11:31:34;22.10;79.80
16114;DHT22;8161;-33.910;151.156;2022-11-20T11:34:11;22.00;80.20
16114;DHT22;8161;-33.910;151.156;2022-11-20T11:36:39;22.00;80.60
16114;DHT22;8161;-33.910;151.156;2022-11-20T11:39:13;21.90;81.30
16114;DHT22;8161;-33.910;151.156;2022-11-20T11:41:41;21.90;82.10
16114;DHT22;8161;-33.910;151.156;2022-11-20T11:46:58;21.80;82.80
16114;DHT22;8161;-33.910;151.156;2022-11-20T11:49:25;21.80;83.60
16114;DHT22;8161;-33.910;151.156;2022-11-20T12:00:15;21.70;85.00
16114;DHT22;8161;-33.910;151.156;2022-11-20T12:05:30;21.60;85.70
16114;DHT22;8161;-33.910;151.156;2022-11-20T12:16:03;21.60;87.70
16114;DHT22;8161;-33.910;151.156;2022-11-20T12:18:31;21.60;88.40
16114;DHT22;8161;-33.910;151.156;2022-11-20T12:21:02;21.60;88.70
16114;DHT22;8161;-33.910;151.156;2022-11-20T12:43:26;21.40;90.40
16114;DHT22;8161;-33.910;151.156;2022-11-20T12:46:24;21.30;90.30
16114;DHT22;8161;-33.910;151.156;2022-11-20T12:49:02;21.30;90.20
16114;DHT22;8161;-33.910;151.156;2022-11-20T13:08:34;21.10;91.70
16114;DHT22;8161;-33.910;151.156;2022-11-20T13:19:09;21.00;91.90
16114;DHT22;8161;-33.910;151.156;2022-11-20T13:21:43;20.90;92.50
16114;DHT22;8161;-33.910;151.156;2022-11-20T13:24:25;20.90;92.30
16114;DHT22;8161;-33.910;151.156;2022-11-20T13:27:16;21.10;96.10
16114;DHT22;8161;-33.910;151.156;2022-11-20T13:29:47;20.80;96.50
16114;DHT22;8161;-33.910;151.156;2022-11-20T13:32:26;20.90;97.00
16114;DHT22;8161;-33.910;151.156;2022-11-20T13:35:03;20.70;95.00
16114;DHT22;8161;-33.910;151.156;2022-11-20T13:37:36;20.70;96.00
16114;DHT22;8161;-33.910;151.156;2022-11-20T13:42:46;20.50;96.80
16114;DHT22;8161;-33.910;151.156;2022-11-20T13:45:28;20.80;99.20
16114;DHT22;8161;-33.910;151.156;2022-11-20T13:47:57;20.40;98.00
16114;DHT22;8161;-33.910;151.156;2022-11-20T13:53:42;20.30;96.90
16114;DHT22;8161;-33.910;151.156;2022-11-20T13:59:12;20.40;99.90
16114;DHT22;8161;-33.910;151.156;2022-11-20T14:01:45;20.30;99.90
16114;DHT22;8161;-33.910;151.156;2022-11-20T14:04:21;20.10;99.90
16114;DHT22;8161;-33.910;151.156;2022-11-20T14:06:50;19.90;99.90
16114;DHT22;8161;-33.910;151.156;2022-11-20T14:09:31;20.00;99.90
16114;DHT22;8161;-33.910;151.156;2022-11-20T14:11:59;19.60;99.90
16114;DHT22;8161;-33.910;151.156;2022-11-20T14:14:28;19.80;99.90
16114;DHT22;8161;-33.910;151.156;2022-11-20T14:17:20;19.70;99.70
16114;DHT22;8161;-33.910;151.156;2022-11-20T14:19:49;19.80;97.00
16114;DHT22;8161;-33.910;151.156;2022-11-20T14:22:25;19.80;98.70
16114;DHT22;8161;-33.910;151.156;2022-11-20T14:27:43;19.70;96.20
16114;DHT22;8161;-33.910;151.156;2022-11-20T14:30:23;19.60;98.70
16114;DHT22;8161;-33.910;151.156;2022-11-20T14:32:57;19.80;98.10
16114;DHT22;8161;-33.910;151.156;2022-11-20T14:35:33;19.90;98.00
16114;DHT22;8161;-33.910;151.156;2022-11-20T14:38:02;19.50;97.90
16114;DHT22;8161;-33.910;151.156;2022-11-20T14:40:35;19.90;97.90
16114;DHT22;8161;-33.910;151.156;2022-11-20T14:43:26;19.90;97.90
16114;DHT22;8161;-33.910;151.156;2022-11-20T14:45:59;19.70;97.00
16114;DHT22;8161;-33.910;151.156;2022-11-20T14:48:55;19.80;97.10
16114;DHT22;8161;-33.910;151.156;2022-11-20T14:51:34;19.80;96.40
16114;DHT22;8161;-33.910;151.156;2022-11-20T14:54:14;20.00;94.60
16114;DHT22;8161;-33.910;151.156;2022-11-20T14:56:42;19.80;97.00
16114;DHT22;8161;-33.910;151.156;2022-11-20T14:59:24;20.00;95.20
16114;DHT22;8161;-33.910;151.156;2022-11-20T15:01:57;20.00;95.20
16114;DHT22;8161;-33.910;151.156;2022-11-20T15:04:25;20.00;95.30
16114;DHT22;8161;-33.910;151.156;2022-11-20T15:06:55;20.00;95.30
16114;DHT22;8161;-33.910;151.156;2022-11-20T15:09:23;20.00;95.50
16114;DHT22;8161;-33.910;151.156;2022-11-20T15:12:02;20.10;95.70
16114;DHT22;8161;-33.910;151.156;2022-11-20T15:14:31;20.00;95.90
16114;DHT22;8161;-33.910;151.156;2022-11-20T15:17:01;20.00;96.60
16114;DHT22;8161;-33.910;151.156;2022-11-20T15:19:29;20.00;96.40
16114;DHT22;8161;-33.910;151.156;2022-11-20T15:21:56;20.00;96.90
16114;DHT22;8161;-33.910;151.156;2022-11-20T15:24:23;19.90;97.10
16114;DHT22;8161;-33.910;151.156;2022-11-20T15:26:50;19.80;97.40
16114;DHT22;8161;-33.910;151.156;2022-11-20T15:29:18;19.80;97.90
16114;DHT22;8161;-33.910;151.156;2022-11-20T15:31:47;19.80;97.90
16114;DHT22;8161;-33.910;151.156;2022-11-20T15:34:15;19.80;98.00
16114;DHT22;8161;-33.910;151.156;2022-11-20T15:36:43;19.80;98.00
16114;DHT22;8161;-33.910;151.156;2022-11-20T15:39:10;19.80;98.60
16114;DHT22;8161;-33.910;151.156;2022-11-20T15:41:38;19.80;99.90
16114;DHT22;8161;-33.910;151.156;2022-11-20T15:44:05;19.70;98.20
16114;DHT22;8161;-33.910;151.156;2022-11-20T15:46:36;19.60;99.90
16114;DHT22;8161;-33.910;151.156;2022-11-20T15:49:08;19.70;98.50
16114;DHT22;8161;-33.910;151.156;2022-11-20T15:51:39;19.70;98.00
16114;DHT22;8161;-33.910;151.156;2022-11-20T15:54:18;19.80;98.50
16114;DHT22;8161;-33.910;151.156;2022-11-20T15:56:50;19.70;97.80
16114;DHT22;8161;-33.910;151.156;2022-11-20T15:59:20;19.80;98.40
16114;DHT22;8161;-33.910;151.156;2022-11-20T16:01:48;19.70;98.70
16114;DHT22;8161;-33.910;151.156;2022-11-20T16:04:16;19.70;98.30
16114;DHT22;8161;-33.910;151.156;2022-11-20T16:06:44;19.80;98.60
16114;DHT22;8161;-33.910;151.156;2022-11-20T16:09:12;19.70;97.80
16114;DHT22;8161;-33.910;151.156;2022-11-20T16:11:39;19.70;97.90
16114;DHT22;8161;-33.910;151.156;2022-11-20T16:14:08;19.80;97.90
16114;DHT22;8161;-33.910;151.156;2022-11-20T16:16:50;19.80;98.20
16114;DHT22;8161;-33.910;151.156;2022-11-20T16:19:17;19.80;98.30
16114;DHT22;8161;-33.910;151.156;2022-11-20T16:21:45;19.70;98.20
16114;DHT22;8161;-33.910;151.156;2022-11-20T16:24:13;19.70;98.50
16114;DHT22;8161;-33.910;151.156;2022-11-20T16:26:41;19.70;98.30
16114;DHT22;8161;-33.910;151.156;2022-11-20T16:29:08;19.60;98.20
16114;DHT22;8161;-33.910;151.156;2022-11-20T16:31:36;19.70;98.20
16114;DHT22;8161;-33.910;151.156;2022-11-20T16:34:06;19.70;98.20
16114;DHT22;8161;-33.910;151.156;2022-11-20T16:36:33;19.70;98.40
16114;DHT22;8161;-33.910;151.156;2022-11-20T16:39:02;19.70;98.30
16114;DHT22;8161;-33.910;151.156;2022-11-20T16:41:32;19.60;98.60
16114;DHT22;8161;-33.910;151.156;2022-11-20T16:44:02;19.60;98.50
16114;DHT22;8161;-33.910;151.156;2022-11-20T16:46:30;19.60;99.00
16114;DHT22;8161;-33.910;151.156;2022-11-20T16:49:00;19.50;98.40
16114;DHT22;8161;-33.910;151.156;2022-11-20T16:51:30;19.50;98.40
16114;DHT22;8161;-33.910;151.156;2022-11-20T16:53:58;19.40;98.30
16114;DHT22;8161;-33.910;151.156;2022-11-20T16:56:27;19.40;98.10
16114;DHT22;8161;-33.910;151.156;2022-11-20T16:58:57;19.40;98.60
16114;DHT22;8161;-33.910;151.156;2022-11-20T17:01:25;19.50;98.60
16114;DHT22;8161;-33.910;151.156;2022-11-20T17:03:57;19.50;98.40
16114;DHT22;8161;-33.910;151.156;2022-11-20T17:06:29;19.50;98.40
16114;DHT22;8161;-33.910;151.156;2022-11-20T17:08:57;19.50;98.50
16114;DHT22;8161;-33.910;151.156;2022-11-20T17:11:25;19.50;99.30
16114;DHT22;8161;-33.910;151.156;2022-11-20T17:13:55;19.50;99.10
16114;DHT22;8161;-33.910;151.156;2022-11-20T17:16:23;19.50;99.30
16114;DHT22;8161;-33.910;151.156;2022-11-20T17:18:53;19.50;99.90
16114;DHT22;8161;-33.910;151.156;2022-11-20T17:21:21;19.50;99.90
16114;DHT22;8161;-33.910;151.156;2022-11-20T17:23:48;19.50;99.90
16114;DHT22;8161;-33.910;151.156;2022-11-20T17:26:18;19.60;99.90
16114;DHT22;8161;-33.910;151.156;2022-11-20T17:28:56;19.60;99.90
16114;DHT22;8161;-33.910;151.156;2022-11-20T17:31:25;19.50;99.90
16114;DHT22;8161;-33.910;151.156;2022-11-20T17:33:53;19.50;99.90
16114;DHT22;8161;-33.910;151.156;2022-11-20T17:36:21;19.40;99.90
16114;DHT22;8161;-33.910;151.156;2022-11-20T17:38:48;19.50;99.90